sensor_id;sensor_type;location;lat;lon;timestamp;P1;durP1;ratioP1;P2;durP2;ratioP2
73575;SDS011;61859;49.204;8.140;2023-02-28T00:00:22;4.37;;;2.23;;
73575;SDS011;61859;49.204;8.140;2023-02-28T00:02:48;2.13;;;1.87;;
73575;SDS011;61859;49.204;8.140;2023-02-28T00:05:15;2.53;;;2.13;;
73575;SDS011;61859;49.204;8.140;2023-02-28T00:07:43;2.90;;;2.00;;
73575;SDS011;61859;49.204;8.140;2023-02-28T00:10:09;3.50;;;2.00;;
73575;SDS011;61859;49.204;8.140;2023-02-28T00:12:37;1.97;;;1.80;;
73575;SDS011;61859;49.204;8.140;2023-02-28T00:15:07;2.23;;;1.80;;
73575;SDS011;61859;49.204;8.140;2023-02-28T00:17:34;2.77;;;1.90;;
73575;SDS011;61859;49.204;8.140;2023-02-28T00:20:00;2.37;;;1.60;;
73575;SDS011;61859;49.204;8.140;2023-02-28T00:22:32;1.97;;;1.80;;
73575;SDS011;61859;49.204;8.140;2023-02-28T00:24:58;1.80;;;1.70;;
73575;SDS011;61859;49.204;8.140;2023-02-28T00:27:23;2.43;;;1.77;;
73575;SDS011;61859;49.204;8.140;2023-02-28T00:29:49;1.73;;;1.60;;
73575;SDS011;61859;49.204;8.140;2023-02-28T00:32:14;3.07;;;1.80;;
73575;SDS011;61859;49.204;8.140;2023-02-28T00:34:40;1.73;;;1.63;;
73575;SDS011;61859;49.204;8.140;2023-02-28T00:37:06;2.07;;;1.70;;
73575;SDS011;61859;49.204;8.140;2023-02-28T00:39:34;5.13;;;1.73;;
73575;SDS011;61859;49.204;8.140;2023-02-28T00:42:00;2.40;;;1.90;;
73575;SDS011;61859;49.204;8.140;2023-02-28T00:44:27;1.83;;;1.67;;
73575;SDS011;61859;49.204;8.140;2023-02-28T00:46:52;2.23;;;1.80;;
73575;SDS011;61859;49.204;8.140;2023-02-28T00:49:19;1.53;;;1.43;;
73575;SDS011;61859;49.204;8.140;2023-02-28T00:51:45;1.67;;;1.57;;
73575;SDS011;61859;49.204;8.140;2023-02-28T00:54:11;2.77;;;1.83;;
73575;SDS011;61859;49.204;8.140;2023-02-28T00:56:36;1.73;;;1.50;;
73575;SDS011;61859;49.204;8.140;2023-02-28T00:59:02;2.50;;;1.40;;
73575;SDS011;61859;49.204;8.140;2023-02-28T01:01:27;2.17;;;1.53;;
73575;SDS011;61859;49.204;8.140;2023-02-28T01:03:53;2.37;;;1.63;;
73575;SDS011;61859;49.204;8.140;2023-02-28T01:06:18;4.53;;;1.77;;
73575;SDS011;61859;49.204;8.140;2023-02-28T01:08:44;1.43;;;1.30;;
73575;SDS011;61859;49.204;8.140;2023-02-28T01:11:10;1.53;;;1.43;;
73575;SDS011;61859;49.204;8.140;2023-02-28T01:13:37;1.73;;;1.57;;
73575;SDS011;61859;49.204;8.140;2023-02-28T01:16:03;1.57;;;1.47;;
73575;SDS011;61859;49.204;8.140;2023-02-28T01:18:29;2.60;;;1.53;;
73575;SDS011;61859;49.204;8.140;2023-02-28T01:20:55;1.43;;;1.33;;
73575;SDS011;61859;49.204;8.140;2023-02-28T01:23:21;7.83;;;1.80;;
73575;SDS011;61859;49.204;8.140;2023-02-28T01:25:48;2.87;;;1.83;;
73575;SDS011;61859;49.204;8.140;2023-02-28T01:28:17;1.73;;;1.40;;
73575;SDS011;61859;49.204;8.140;2023-02-28T01:30:46;1.50;;;1.30;;
73575;SDS011;61859;49.204;8.140;2023-02-28T01:33:13;1.60;;;1.50;;
73575;SDS011;61859;49.204;8.140;2023-02-28T01:35:39;3.23;;;1.90;;
73575;SDS011;61859;49.204;8.140;2023-02-28T01:38:05;1.90;;;1.70;;
73575;SDS011;61859;49.204;8.140;2023-02-28T01:40:31;1.50;;;1.30;;
73575;SDS011;61859;49.204;8.140;2023-02-28T01:42:56;3.60;;;2.03;;
73575;SDS011;61859;49.204;8.140;2023-02-28T01:45:26;2.63;;;1.70;;
73575;SDS011;61859;49.204;8.140;2023-02-28T01:48:03;3.60;;;1.90;;
73575;SDS011;61859;49.204;8.140;2023-02-28T01:50:34;2.43;;;1.73;;
73575;SDS011;61859;49.204;8.140;2023-02-28T01:53:04;3.13;;;1.90;;
73575;SDS011;61859;49.204;8.140;2023-02-28T01:55:33;4.03;;;2.00;;
73575;SDS011;61859;49.204;8.140;2023-02-28T01:58:01;3.53;;;2.07;;
73575;SDS011;61859;49.204;8.140;2023-02-28T02:00:29;1.70;;;1.60;;
73575;SDS011;61859;49.204;8.140;2023-02-28T02:02:57;2.30;;;1.70;;
73575;SDS011;61859;49.204;8.140;2023-02-28T02:05:27;2.10;;;1.77;;
73575;SDS011;61859;49.204;8.140;2023-02-28T02:07:56;1.50;;;1.40;;
73575;SDS011;61859;49.204;8.140;2023-02-28T02:18:46;2.10;;;1.63;;
73575;SDS011;61859;49.204;8.140;2023-02-28T02:35:11;2.47;;;1.80;;
73575;SDS011;61859;49.204;8.140;2023-02-28T02:37:50;2.37;;;2.00;;
73575;SDS011;61859;49.204;8.140;2023-02-28T02:40:17;2.23;;;2.03;;
73575;SDS011;61859;49.204;8.140;2023-02-28T02:42:55;2.83;;;2.13;;
73575;SDS011;61859;49.204;8.140;2023-02-28T02:45:33;3.17;;;2.60;;
73575;SDS011;61859;49.204;8.140;2023-02-28T02:48:06;2.67;;;2.30;;
73575;SDS011;61859;49.204;8.140;2023-02-28T02:50:54;2.83;;;2.03;;
73575;SDS011;61859;49.204;8.140;2023-02-28T02:53:23;2.30;;;2.03;;
73575;SDS011;61859;49.204;8.140;2023-02-28T02:55:53;3.93;;;2.50;;
73575;SDS011;61859;49.204;8.140;2023-02-28T02:58:24;2.20;;;2.00;;
73575;SDS011;61859;49.204;8.140;2023-02-28T03:00:55;3.47;;;2.27;;
73575;SDS011;61859;49.204;8.140;2023-02-28T03:03:24;3.60;;;2.27;;
73575;SDS011;61859;49.204;8.140;2023-02-28T03:05:59;2.30;;;2.10;;
73575;SDS011;61859;49.204;8.140;2023-02-28T03:08:26;2.70;;;2.50;;
73575;SDS011;61859;49.204;8.140;2023-02-28T03:10:57;2.93;;;2.63;;
73575;SDS011;61859;49.204;8.140;2023-02-28T03:26:45;2.53;;;2.27;;
73575;SDS011;61859;49.204;8.140;2023-02-28T03:31:54;2.90;;;2.17;;
73575;SDS011;61859;49.204;8.140;2023-02-28T03:34:29;2.80;;;2.50;;
73575;SDS011;61859;49.204;8.140;2023-02-28T03:37:00;3.00;;;2.70;;
73575;SDS011;61859;49.204;8.140;2023-02-28T03:39:41;2.60;;;2.40;;
73575;SDS011;61859;49.204;8.140;2023-02-28T03:42:20;3.87;;;2.73;;
73575;SDS011;61859;49.204;8.140;2023-02-28T03:44:50;4.07;;;2.47;;
73575;SDS011;61859;49.204;8.140;2023-02-28T03:47:22;2.77;;;2.53;;
73575;SDS011;61859;49.204;8.140;2023-02-28T03:49:57;3.23;;;2.73;;
73575;SDS011;61859;49.204;8.140;2023-02-28T03:52:36;2.70;;;2.20;;
73575;SDS011;61859;49.204;8.140;2023-02-28T03:55:10;4.10;;;3.13;;
73575;SDS011;61859;49.204;8.140;2023-02-28T03:57:40;3.10;;;2.53;;
73575;SDS011;61859;49.204;8.140;2023-02-28T04:00:19;3.93;;;2.67;;
73575;SDS011;61859;49.204;8.140;2023-02-28T04:02:50;3.67;;;2.90;;
73575;SDS011;61859;49.204;8.140;2023-02-28T04:05:17;2.90;;;2.57;;
73575;SDS011;61859;49.204;8.140;2023-02-28T04:07:47;3.03;;;2.60;;
73575;SDS011;61859;49.204;8.140;2023-02-28T04:10:13;3.40;;;2.63;;
73575;SDS011;61859;49.204;8.140;2023-02-28T04:12:40;4.67;;;2.83;;
73575;SDS011;61859;49.204;8.140;2023-02-28T04:15:06;5.00;;;2.80;;
73575;SDS011;61859;49.204;8.140;2023-02-28T04:17:32;3.13;;;2.53;;
73575;SDS011;61859;49.204;8.140;2023-02-28T04:19:57;3.53;;;2.23;;
73575;SDS011;61859;49.204;8.140;2023-02-28T04:22:23;3.00;;;2.70;;
73575;SDS011;61859;49.204;8.140;2023-02-28T04:24:52;4.93;;;3.60;;
73575;SDS011;61859;49.204;8.140;2023-02-28T04:27:19;3.17;;;2.87;;
73575;SDS011;61859;49.204;8.140;2023-02-28T04:29:45;3.00;;;2.70;;
73575;SDS011;61859;49.204;8.140;2023-02-28T04:32:11;6.10;;;2.90;;
73575;SDS011;61859;49.204;8.140;2023-02-28T04:34:37;3.50;;;3.07;;
73575;SDS011;61859;49.204;8.140;2023-02-28T04:37:02;2.73;;;2.50;;
73575;SDS011;61859;49.204;8.140;2023-02-28T04:39:28;3.93;;;2.97;;
73575;SDS011;61859;49.204;8.140;2023-02-28T04:41:54;4.20;;;2.73;;
73575;SDS011;61859;49.204;8.140;2023-02-28T04:44:20;3.10;;;2.80;;
73575;SDS011;61859;49.204;8.140;2023-02-28T04:46:47;2.90;;;2.47;;
73575;SDS011;61859;49.204;8.140;2023-02-28T04:49:13;2.73;;;2.50;;
73575;SDS011;61859;49.204;8.140;2023-02-28T04:51:39;2.90;;;2.57;;
73575;SDS011;61859;49.204;8.140;2023-02-28T04:54:05;2.97;;;2.20;;
73575;SDS011;61859;49.204;8.140;2023-02-28T04:56:31;3.17;;;2.70;;
73575;SDS011;61859;49.204;8.140;2023-02-28T04:58:57;4.07;;;2.70;;
73575;SDS011;61859;49.204;8.140;2023-02-28T05:01:24;2.93;;;2.33;;
73575;SDS011;61859;49.204;8.140;2023-02-28T05:03:58;3.60;;;2.80;;
73575;SDS011;61859;49.204;8.140;2023-02-28T05:06:26;3.33;;;2.60;;
73575;SDS011;61859;49.204;8.140;2023-02-28T05:08:52;2.97;;;2.67;;
73575;SDS011;61859;49.204;8.140;2023-02-28T05:11:22;3.97;;;2.90;;
73575;SDS011;61859;49.204;8.140;2023-02-28T05:13:50;2.77;;;2.30;;
73575;SDS011;61859;49.204;8.140;2023-02-28T05:16:17;2.50;;;2.23;;
73575;SDS011;61859;49.204;8.140;2023-02-28T05:18:43;4.33;;;3.50;;
73575;SDS011;61859;49.204;8.140;2023-02-28T05:21:18;3.70;;;2.80;;
73575;SDS011;61859;49.204;8.140;2023-02-28T05:23:49;3.00;;;2.70;;
73575;SDS011;61859;49.204;8.140;2023-02-28T05:26:14;3.67;;;2.50;;
73575;SDS011;61859;49.204;8.140;2023-02-28T05:28:40;3.43;;;2.57;;
73575;SDS011;61859;49.204;8.140;2023-02-28T05:31:05;3.30;;;2.43;;
73575;SDS011;61859;49.204;8.140;2023-02-28T05:33:32;4.17;;;2.57;;
73575;SDS011;61859;49.204;8.140;2023-02-28T05:35:58;2.90;;;2.50;;
73575;SDS011;61859;49.204;8.140;2023-02-28T05:38:23;3.00;;;2.63;;
73575;SDS011;61859;49.204;8.140;2023-02-28T05:40:49;3.63;;;2.33;;
73575;SDS011;61859;49.204;8.140;2023-02-28T05:43:14;3.33;;;3.00;;
73575;SDS011;61859;49.204;8.140;2023-02-28T05:45:40;3.30;;;2.77;;
73575;SDS011;61859;49.204;8.140;2023-02-28T05:48:05;4.53;;;2.77;;
73575;SDS011;61859;49.204;8.140;2023-02-28T05:50:31;3.90;;;3.20;;
73575;SDS011;61859;49.204;8.140;2023-02-28T05:52:56;2.73;;;2.33;;
73575;SDS011;61859;49.204;8.140;2023-02-28T05:55:22;3.13;;;2.60;;
73575;SDS011;61859;49.204;8.140;2023-02-28T05:57:47;2.57;;;2.10;;
73575;SDS011;61859;49.204;8.140;2023-02-28T06:00:13;3.97;;;2.67;;
73575;SDS011;61859;49.204;8.140;2023-02-28T06:02:40;3.83;;;3.03;;
73575;SDS011;61859;49.204;8.140;2023-02-28T06:05:08;3.97;;;2.40;;
73575;SDS011;61859;49.204;8.140;2023-02-28T06:07:39;3.57;;;3.00;;
73575;SDS011;61859;49.204;8.140;2023-02-28T06:10:04;3.40;;;2.43;;
73575;SDS011;61859;49.204;8.140;2023-02-28T06:12:30;2.93;;;2.47;;
73575;SDS011;61859;49.204;8.140;2023-02-28T06:14:56;3.53;;;2.73;;
73575;SDS011;61859;49.204;8.140;2023-02-28T06:17:21;6.27;;;2.70;;
73575;SDS011;61859;49.204;8.140;2023-02-28T06:19:47;2.57;;;2.37;;
73575;SDS011;61859;49.204;8.140;2023-02-28T06:22:13;5.43;;;3.43;;
73575;SDS011;61859;49.204;8.140;2023-02-28T06:24:38;4.83;;;2.83;;
73575;SDS011;61859;49.204;8.140;2023-02-28T06:27:04;3.63;;;2.90;;
73575;SDS011;61859;49.204;8.140;2023-02-28T06:29:33;3.13;;;2.83;;
73575;SDS011;61859;49.204;8.140;2023-02-28T06:31:59;4.33;;;2.73;;
73575;SDS011;61859;49.204;8.140;2023-02-28T06:34:25;4.77;;;2.53;;
73575;SDS011;61859;49.204;8.140;2023-02-28T06:36:51;4.37;;;2.97;;
73575;SDS011;61859;49.204;8.140;2023-02-28T06:39:17;4.77;;;2.77;;
73575;SDS011;61859;49.204;8.140;2023-02-28T06:41:42;3.90;;;3.03;;
73575;SDS011;61859;49.204;8.140;2023-02-28T06:44:17;4.07;;;3.20;;
73575;SDS011;61859;49.204;8.140;2023-02-28T06:46:43;5.03;;;3.10;;
73575;SDS011;61859;49.204;8.140;2023-02-28T06:49:10;4.40;;;3.03;;
73575;SDS011;61859;49.204;8.140;2023-02-28T06:51:37;3.47;;;2.93;;
73575;SDS011;61859;49.204;8.140;2023-02-28T06:54:04;6.60;;;3.03;;
73575;SDS011;61859;49.204;8.140;2023-02-28T06:56:33;5.03;;;2.77;;
73575;SDS011;61859;49.204;8.140;2023-02-28T06:58:59;6.67;;;3.20;;
73575;SDS011;61859;49.204;8.140;2023-02-28T07:01:25;3.50;;;3.10;;
73575;SDS011;61859;49.204;8.140;2023-02-28T07:03:52;3.27;;;2.53;;
73575;SDS011;61859;49.204;8.140;2023-02-28T07:06:19;4.77;;;2.80;;
73575;SDS011;61859;49.204;8.140;2023-02-28T07:08:47;4.47;;;3.00;;
73575;SDS011;61859;49.204;8.140;2023-02-28T07:11:13;3.23;;;2.83;;
73575;SDS011;61859;49.204;8.140;2023-02-28T07:13:39;3.97;;;2.93;;
73575;SDS011;61859;49.204;8.140;2023-02-28T07:16:05;8.50;;;3.13;;
73575;SDS011;61859;49.204;8.140;2023-02-28T07:18:33;3.57;;;2.93;;
73575;SDS011;61859;49.204;8.140;2023-02-28T07:21:01;4.20;;;2.97;;
73575;SDS011;61859;49.204;8.140;2023-02-28T07:23:28;3.67;;;2.63;;
73575;SDS011;61859;49.204;8.140;2023-02-28T07:25:53;3.10;;;2.80;;
73575;SDS011;61859;49.204;8.140;2023-02-28T07:28:19;3.57;;;2.90;;
73575;SDS011;61859;49.204;8.140;2023-02-28T07:30:44;2.90;;;2.70;;
73575;SDS011;61859;49.204;8.140;2023-02-28T07:33:10;4.17;;;2.70;;
73575;SDS011;61859;49.204;8.140;2023-02-28T07:35:36;3.23;;;2.70;;
73575;SDS011;61859;49.204;8.140;2023-02-28T07:38:01;4.43;;;3.03;;
73575;SDS011;61859;49.204;8.140;2023-02-28T07:40:28;4.93;;;3.10;;
73575;SDS011;61859;49.204;8.140;2023-02-28T07:42:53;3.47;;;3.00;;
73575;SDS011;61859;49.204;8.140;2023-02-28T07:45:19;4.50;;;3.20;;
73575;SDS011;61859;49.204;8.140;2023-02-28T07:47:44;4.87;;;2.97;;
73575;SDS011;61859;49.204;8.140;2023-02-28T07:50:11;4.97;;;3.10;;
73575;SDS011;61859;49.204;8.140;2023-02-28T07:52:39;4.07;;;3.17;;
73575;SDS011;61859;49.204;8.140;2023-02-28T07:55:06;4.53;;;3.33;;
73575;SDS011;61859;49.204;8.140;2023-02-28T07:57:33;5.73;;;3.03;;
73575;SDS011;61859;49.204;8.140;2023-02-28T07:59:58;3.87;;;3.30;;
73575;SDS011;61859;49.204;8.140;2023-02-28T08:02:24;3.80;;;3.20;;
73575;SDS011;61859;49.204;8.140;2023-02-28T08:04:50;3.53;;;2.93;;
73575;SDS011;61859;49.204;8.140;2023-02-28T08:07:16;5.77;;;3.20;;
73575;SDS011;61859;49.204;8.140;2023-02-28T08:09:42;6.77;;;4.03;;
73575;SDS011;61859;49.204;8.140;2023-02-28T08:12:09;4.30;;;3.10;;
73575;SDS011;61859;49.204;8.140;2023-02-28T08:14:35;5.70;;;3.23;;
73575;SDS011;61859;49.204;8.140;2023-02-28T08:17:02;5.93;;;3.30;;
73575;SDS011;61859;49.204;8.140;2023-02-28T08:19:28;3.17;;;2.87;;
73575;SDS011;61859;49.204;8.140;2023-02-28T08:21:54;6.77;;;3.33;;
73575;SDS011;61859;49.204;8.140;2023-02-28T08:24:20;3.77;;;3.37;;
73575;SDS011;61859;49.204;8.140;2023-02-28T08:26:45;5.07;;;3.00;;
73575;SDS011;61859;49.204;8.140;2023-02-28T08:29:11;7.43;;;3.43;;
73575;SDS011;61859;49.204;8.140;2023-02-28T08:31:36;4.40;;;3.60;;
73575;SDS011;61859;49.204;8.140;2023-02-28T08:34:09;6.23;;;3.63;;
73575;SDS011;61859;49.204;8.140;2023-02-28T08:36:36;6.57;;;3.47;;
73575;SDS011;61859;49.204;8.140;2023-02-28T08:39:02;5.00;;;3.77;;
73575;SDS011;61859;49.204;8.140;2023-02-28T08:41:28;4.37;;;3.40;;
73575;SDS011;61859;49.204;8.140;2023-02-28T08:43:54;5.10;;;3.07;;
73575;SDS011;61859;49.204;8.140;2023-02-28T08:46:20;5.53;;;4.07;;
73575;SDS011;61859;49.204;8.140;2023-02-28T08:48:45;5.30;;;4.03;;
73575;SDS011;61859;49.204;8.140;2023-02-28T08:51:15;4.77;;;3.53;;
73575;SDS011;61859;49.204;8.140;2023-02-28T08:53:44;4.30;;;3.60;;
73575;SDS011;61859;49.204;8.140;2023-02-28T08:56:14;3.93;;;3.33;;
73575;SDS011;61859;49.204;8.140;2023-02-28T08:58:42;4.13;;;3.40;;
73575;SDS011;61859;49.204;8.140;2023-02-28T09:01:18;5.50;;;3.17;;
73575;SDS011;61859;49.204;8.140;2023-02-28T09:03:46;6.17;;;3.03;;
73575;SDS011;61859;49.204;8.140;2023-02-28T09:06:13;5.80;;;3.77;;
73575;SDS011;61859;49.204;8.140;2023-02-28T09:08:40;3.77;;;3.37;;
73575;SDS011;61859;49.204;8.140;2023-02-28T09:11:06;4.33;;;3.47;;
73575;SDS011;61859;49.204;8.140;2023-02-28T09:13:32;4.77;;;3.57;;
73575;SDS011;61859;49.204;8.140;2023-02-28T09:15:58;5.37;;;3.97;;
73575;SDS011;61859;49.204;8.140;2023-02-28T09:18:25;7.17;;;3.87;;
73575;SDS011;61859;49.204;8.140;2023-02-28T09:20:51;4.50;;;3.60;;
73575;SDS011;61859;49.204;8.140;2023-02-28T09:23:17;6.23;;;3.43;;
73575;SDS011;61859;49.204;8.140;2023-02-28T09:25:47;5.40;;;4.27;;
73575;SDS011;61859;49.204;8.140;2023-02-28T09:28:14;4.70;;;3.90;;
73575;SDS011;61859;49.204;8.140;2023-02-28T09:30:41;5.37;;;4.00;;
73575;SDS011;61859;49.204;8.140;2023-02-28T09:33:09;6.80;;;5.10;;
73575;SDS011;61859;49.204;8.140;2023-02-28T09:35:34;6.93;;;4.73;;
73575;SDS011;61859;49.204;8.140;2023-02-28T09:38:02;5.23;;;4.10;;
73575;SDS011;61859;49.204;8.140;2023-02-28T09:40:28;4.80;;;4.10;;
73575;SDS011;61859;49.204;8.140;2023-02-28T09:42:54;7.53;;;4.30;;
73575;SDS011;61859;49.204;8.140;2023-02-28T09:47:59;7.07;;;4.23;;
73575;SDS011;61859;49.204;8.140;2023-02-28T09:53:04;7.27;;;4.60;;
73575;SDS011;61859;49.204;8.140;2023-02-28T09:55:39;3.67;;;3.37;;
73575;SDS011;61859;49.204;8.140;2023-02-28T09:58:32;4.97;;;3.87;;
73575;SDS011;61859;49.204;8.140;2023-02-28T10:01:12;6.40;;;4.20;;
73575;SDS011;61859;49.204;8.140;2023-02-28T10:03:46;5.80;;;4.10;;
73575;SDS011;61859;49.204;8.140;2023-02-28T10:06:19;9.07;;;4.60;;
73575;SDS011;61859;49.204;8.140;2023-02-28T10:09:03;6.27;;;4.10;;
73575;SDS011;61859;49.204;8.140;2023-02-28T10:11:34;5.30;;;4.47;;
73575;SDS011;61859;49.204;8.140;2023-02-28T10:14:09;6.07;;;4.10;;
73575;SDS011;61859;49.204;8.140;2023-02-28T10:19:22;6.00;;;4.07;;
73575;SDS011;61859;49.204;8.140;2023-02-28T10:21:56;5.53;;;4.43;;
73575;SDS011;61859;49.204;8.140;2023-02-28T10:27:15;7.67;;;4.00;;
73575;SDS011;61859;49.204;8.140;2023-02-28T10:29:43;6.13;;;4.00;;
73575;SDS011;61859;49.204;8.140;2023-02-28T10:32:17;5.53;;;4.20;;
73575;SDS011;61859;49.204;8.140;2023-02-28T10:34:44;5.97;;;4.40;;
73575;SDS011;61859;49.204;8.140;2023-02-28T10:37:15;4.60;;;4.03;;
73575;SDS011;61859;49.204;8.140;2023-02-28T10:39:43;4.93;;;3.70;;
73575;SDS011;61859;49.204;8.140;2023-02-28T10:44:54;4.10;;;3.40;;
73575;SDS011;61859;49.204;8.140;2023-02-28T10:47:29;14.67;;;4.63;;
73575;SDS011;61859;49.204;8.140;2023-02-28T10:49:56;4.97;;;3.83;;
73575;SDS011;61859;49.204;8.140;2023-02-28T10:52:40;5.57;;;4.17;;
73575;SDS011;61859;49.204;8.140;2023-02-28T10:55:18;4.17;;;3.50;;
73575;SDS011;61859;49.204;8.140;2023-02-28T10:57:50;6.57;;;4.03;;
73575;SDS011;61859;49.204;8.140;2023-02-28T11:00:20;4.33;;;3.20;;
73575;SDS011;61859;49.204;8.140;2023-02-28T11:02:50;7.90;;;3.43;;
73575;SDS011;61859;49.204;8.140;2023-02-28T11:05:27;6.80;;;3.70;;
73575;SDS011;61859;49.204;8.140;2023-02-28T11:08:05;4.77;;;3.63;;
73575;SDS011;61859;49.204;8.140;2023-02-28T11:11:01;5.00;;;4.00;;
73575;SDS011;61859;49.204;8.140;2023-02-28T11:13:32;5.13;;;4.17;;
73575;SDS011;61859;49.204;8.140;2023-02-28T11:16:00;4.87;;;4.00;;
73575;SDS011;61859;49.204;8.140;2023-02-28T11:18:43;6.10;;;4.17;;
73575;SDS011;61859;49.204;8.140;2023-02-28T11:21:56;5.13;;;3.70;;
73575;SDS011;61859;49.204;8.140;2023-02-28T11:26:53;7.67;;;4.77;;
73575;SDS011;61859;49.204;8.140;2023-02-28T11:29:24;6.40;;;4.50;;
73575;SDS011;61859;49.204;8.140;2023-02-28T11:34:43;9.60;;;4.70;;
73575;SDS011;61859;49.204;8.140;2023-02-28T11:37:12;9.63;;;5.53;;
73575;SDS011;61859;49.204;8.140;2023-02-28T11:39:40;6.83;;;4.70;;
73575;SDS011;61859;49.204;8.140;2023-02-28T11:44:47;5.27;;;4.30;;
73575;SDS011;61859;49.204;8.140;2023-02-28T11:47:37;4.83;;;3.90;;
73575;SDS011;61859;49.204;8.140;2023-02-28T11:50:17;6.73;;;4.43;;
73575;SDS011;61859;49.204;8.140;2023-02-28T12:04:17;4.50;;;4.10;;
73575;SDS011;61859;49.204;8.140;2023-02-28T12:07:25;7.23;;;4.53;;
73575;SDS011;61859;49.204;8.140;2023-02-28T12:13:06;8.93;;;4.57;;
73575;SDS011;61859;49.204;8.140;2023-02-28T12:15:47;7.43;;;5.30;;
73575;SDS011;61859;49.204;8.140;2023-02-28T12:24:25;5.63;;;4.33;;
73575;SDS011;61859;49.204;8.140;2023-02-28T12:27:05;10.03;;;4.90;;
73575;SDS011;61859;49.204;8.140;2023-02-28T12:29:49;4.37;;;3.97;;
73575;SDS011;61859;49.204;8.140;2023-02-28T12:32:23;8.10;;;4.80;;
73575;SDS011;61859;49.204;8.140;2023-02-28T12:37:50;6.43;;;4.50;;
73575;SDS011;61859;49.204;8.140;2023-02-28T12:40:28;6.97;;;4.90;;
73575;SDS011;61859;49.204;8.140;2023-02-28T12:43:07;14.27;;;6.90;;
73575;SDS011;61859;49.204;8.140;2023-02-28T12:45:40;8.97;;;4.90;;
73575;SDS011;61859;49.204;8.140;2023-02-28T12:48:12;7.07;;;4.93;;
73575;SDS011;61859;49.204;8.140;2023-02-28T12:50:48;5.63;;;4.40;;
73575;SDS011;61859;49.204;8.140;2023-02-28T12:53:21;6.87;;;5.03;;
73575;SDS011;61859;49.204;8.140;2023-02-28T12:56:07;9.17;;;4.97;;
73575;SDS011;61859;49.204;8.140;2023-02-28T12:58:51;4.73;;;4.23;;
73575;SDS011;61859;49.204;8.140;2023-02-28T13:07:15;5.63;;;4.70;;
73575;SDS011;61859;49.204;8.140;2023-02-28T13:10:05;7.37;;;5.47;;
73575;SDS011;61859;49.204;8.140;2023-02-28T13:12:33;6.27;;;4.10;;
73575;SDS011;61859;49.204;8.140;2023-02-28T13:15:19;6.40;;;4.47;;
73575;SDS011;61859;49.204;8.140;2023-02-28T13:17:51;8.37;;;4.53;;
73575;SDS011;61859;49.204;8.140;2023-02-28T13:20:19;5.30;;;4.60;;
73575;SDS011;61859;49.204;8.140;2023-02-28T13:22:50;11.53;;;4.83;;
73575;SDS011;61859;49.204;8.140;2023-02-28T13:27:47;7.00;;;4.67;;
73575;SDS011;61859;49.204;8.140;2023-02-28T13:35:50;8.97;;;4.63;;
73575;SDS011;61859;49.204;8.140;2023-02-28T13:38:34;6.80;;;4.87;;
73575;SDS011;61859;49.204;8.140;2023-02-28T14:02:48;5.27;;;4.77;;
73575;SDS011;61859;49.204;8.140;2023-02-28T14:05:30;4.70;;;4.20;;
73575;SDS011;61859;49.204;8.140;2023-02-28T14:08:03;5.20;;;4.67;;
73575;SDS011;61859;49.204;8.140;2023-02-28T14:10:45;5.77;;;4.50;;
73575;SDS011;61859;49.204;8.140;2023-02-28T14:13:14;4.90;;;4.50;;
73575;SDS011;61859;49.204;8.140;2023-02-28T14:16:12;5.47;;;4.50;;
73575;SDS011;61859;49.204;8.140;2023-02-28T14:18:40;6.40;;;5.27;;
73575;SDS011;61859;49.204;8.140;2023-02-28T14:21:32;7.27;;;4.93;;
73575;SDS011;61859;49.204;8.140;2023-02-28T14:24:06;6.10;;;4.80;;
73575;SDS011;61859;49.204;8.140;2023-02-28T14:34:53;6.97;;;5.43;;
73575;SDS011;61859;49.204;8.140;2023-02-28T14:37:29;11.40;;;6.60;;
73575;SDS011;61859;49.204;8.140;2023-02-28T14:39:57;6.63;;;5.53;;
73575;SDS011;61859;49.204;8.140;2023-02-28T14:42:33;13.10;;;8.83;;
73575;SDS011;61859;49.204;8.140;2023-02-28T14:45:21;7.17;;;5.30;;
73575;SDS011;61859;49.204;8.140;2023-02-28T14:47:48;6.93;;;5.60;;
73575;SDS011;61859;49.204;8.140;2023-02-28T14:50:22;7.50;;;6.17;;
73575;SDS011;61859;49.204;8.140;2023-02-28T14:52:52;4.93;;;4.43;;
73575;SDS011;61859;49.204;8.140;2023-02-28T14:55:20;6.73;;;4.90;;
73575;SDS011;61859;49.204;8.140;2023-02-28T14:57:53;5.97;;;5.17;;
73575;SDS011;61859;49.204;8.140;2023-02-28T15:00:22;6.33;;;4.70;;
73575;SDS011;61859;49.204;8.140;2023-02-28T15:02:50;8.47;;;4.60;;
73575;SDS011;61859;49.204;8.140;2023-02-28T15:06:18;6.53;;;4.70;;
73575;SDS011;61859;49.204;8.140;2023-02-28T15:08:16;5.93;;;4.93;;
73575;SDS011;61859;49.204;8.140;2023-02-28T15:10:43;4.73;;;4.13;;
73575;SDS011;61859;49.204;8.140;2023-02-28T15:13:15;5.20;;;4.70;;
73575;SDS011;61859;49.204;8.140;2023-02-28T15:15:57;5.50;;;4.60;;
73575;SDS011;61859;49.204;8.140;2023-02-28T15:21:11;5.67;;;4.57;;
73575;SDS011;61859;49.204;8.140;2023-02-28T15:23:38;4.97;;;4.27;;
73575;SDS011;61859;49.204;8.140;2023-02-28T15:26:09;5.00;;;4.50;;
73575;SDS011;61859;49.204;8.140;2023-02-28T15:28:39;5.87;;;4.60;;
73575;SDS011;61859;49.204;8.140;2023-02-28T15:31:16;5.30;;;4.63;;
73575;SDS011;61859;49.204;8.140;2023-02-28T15:33:55;5.23;;;4.73;;
73575;SDS011;61859;49.204;8.140;2023-02-28T15:36:24;6.30;;;4.60;;
73575;SDS011;61859;49.204;8.140;2023-02-28T15:38:55;6.80;;;4.90;;
73575;SDS011;61859;49.204;8.140;2023-02-28T15:41:24;5.30;;;4.67;;
73575;SDS011;61859;49.204;8.140;2023-02-28T15:44:16;5.30;;;4.50;;
73575;SDS011;61859;49.204;8.140;2023-02-28T15:46:43;5.83;;;4.60;;
73575;SDS011;61859;49.204;8.140;2023-02-28T15:49:26;6.17;;;5.20;;
73575;SDS011;61859;49.204;8.140;2023-02-28T15:51:53;7.03;;;5.10;;
73575;SDS011;61859;49.204;8.140;2023-02-28T15:54:23;7.43;;;4.97;;
73575;SDS011;61859;49.204;8.140;2023-02-28T15:56:52;5.83;;;4.77;;
73575;SDS011;61859;49.204;8.140;2023-02-28T15:59:22;5.93;;;4.87;;
73575;SDS011;61859;49.204;8.140;2023-02-28T16:04:55;6.17;;;4.47;;
73575;SDS011;61859;49.204;8.140;2023-02-28T16:07:21;6.30;;;5.03;;
73575;SDS011;61859;49.204;8.140;2023-02-28T16:09:46;5.93;;;5.13;;
73575;SDS011;61859;49.204;8.140;2023-02-28T16:12:13;6.80;;;5.37;;
73575;SDS011;61859;49.204;8.140;2023-02-28T16:14:38;6.20;;;4.83;;
73575;SDS011;61859;49.204;8.140;2023-02-28T16:17:06;6.03;;;5.07;;
73575;SDS011;61859;49.204;8.140;2023-02-28T16:19:39;5.20;;;4.53;;
73575;SDS011;61859;49.204;8.140;2023-02-28T16:22:04;8.70;;;5.67;;
73575;SDS011;61859;49.204;8.140;2023-02-28T16:24:30;8.50;;;6.43;;
73575;SDS011;61859;49.204;8.140;2023-02-28T16:26:55;6.77;;;6.07;;
73575;SDS011;61859;49.204;8.140;2023-02-28T16:29:29;7.73;;;6.37;;
73575;SDS011;61859;49.204;8.140;2023-02-28T16:31:57;6.43;;;5.30;;
73575;SDS011;61859;49.204;8.140;2023-02-28T16:34:24;8.03;;;5.80;;
73575;SDS011;61859;49.204;8.140;2023-02-28T16:36:50;9.50;;;7.00;;
73575;SDS011;61859;49.204;8.140;2023-02-28T16:39:16;8.60;;;6.67;;
73575;SDS011;61859;49.204;8.140;2023-02-28T16:41:42;9.83;;;6.87;;
73575;SDS011;61859;49.204;8.140;2023-02-28T16:44:11;7.97;;;5.97;;
73575;SDS011;61859;49.204;8.140;2023-02-28T16:46:42;7.57;;;6.17;;
73575;SDS011;61859;49.204;8.140;2023-02-28T16:49:11;8.63;;;6.37;;
73575;SDS011;61859;49.204;8.140;2023-02-28T16:51:37;12.00;;;6.63;;
73575;SDS011;61859;49.204;8.140;2023-02-28T16:54:03;8.83;;;6.70;;
73575;SDS011;61859;49.204;8.140;2023-02-28T16:56:29;9.80;;;6.87;;
73575;SDS011;61859;49.204;8.140;2023-02-28T16:58:55;9.17;;;5.97;;
73575;SDS011;61859;49.204;8.140;2023-02-28T17:01:25;8.27;;;6.47;;
73575;SDS011;61859;49.204;8.140;2023-02-28T17:03:51;8.33;;;6.07;;
73575;SDS011;61859;49.204;8.140;2023-02-28T17:06:20;8.30;;;5.90;;
73575;SDS011;61859;49.204;8.140;2023-02-28T17:08:48;10.90;;;5.57;;
73575;SDS011;61859;49.204;8.140;2023-02-28T17:11:15;7.57;;;5.57;;
73575;SDS011;61859;49.204;8.140;2023-02-28T17:13:41;7.50;;;5.70;;
73575;SDS011;61859;49.204;8.140;2023-02-28T17:16:10;6.50;;;5.10;;